Time;durP1;ratioP1;P1;durP2;ratioP2;P2;SDS_P1;SDS_P2;PMS_P1;PMS_P2;Temp;Humidity;BMP_temperature;BMP_pressure;BME280_temperature;BME280_humidity;BME280_pressure;Samples;Min_cycle;Max_cycle;Signal;HPM_P1;HPM_P2
2023/11/22 06:35:32;;;;;;;;;;;;;;;-2.73;94.32;100625.20;1752291;81;20109;-68
2023/11/22 06:38:00;;;;;;;;;;;;;;;-2.67;94.33;100621.00;1727390;81;20144;-71
2023/11/22 06:40:29;;;;;;;;;;;;;;;-2.61;93.86;100634.64;1748283;81;20184;-75
2023/11/22 06:42:56;;;;;;;;;;;;;;;-2.59;93.49;100633.38;1747609;81;20145;-79
2023/11/22 06:45:25;;;;;;;;;;;;;;;-2.56;93.33;100634.67;1745872;81;20262;-78
2023/11/22 06:47:53;;;;;;;;;;;;;;;-2.51;93.29;100634.29;1748283;80;20115;-76
2023/11/22 06:50:20;;;;;;;;;;;;;;;-2.48;93.01;100637.72;1753039;81;20122;-74
2023/11/22 06:52:49;;;;;;;;;;;;;;;-2.44;92.78;100645.82;1747419;81;20422;-80
2023/11/22 07:07:55;;;;;;;;;;;;;;;-2.27;91.65;100629.32;1760462;80;20143;-78
2023/11/22 07:10:22;;;;;;;;;;;;;;;-2.24;91.75;100631.03;1759194;81;20144;-75
2023/11/22 07:18:00;;;;;;;;;;;;;;;-2.13;90.72;100634.50;1765157;81;20158;-72
2023/11/22 07:20:27;;;;;;;;;;;;;;;-2.12;90.49;100648.97;1735398;82;20132;-72
2023/11/22 07:25:26;;;;;;;;;;;;;;;-2.13;89.69;100657.47;1752269;81;20139;-74
2023/11/22 07:27:56;;;;;;;;;;;;;;;-2.13;89.66;100665.11;1760722;80;20097;-71
2023/11/22 07:30:30;;;;;;;;;;;;;;;-2.13;89.38;100661.29;1736149;82;20111;-75
2023/11/22 07:32:55;;;;;;;;;;;;;;;-2.20;88.96;100664.65;1724924;82;20138;-70
2023/11/22 08:05:28;;;;;;;;;;;;;;;-1.83;91.00;100663.13;1755526;80;20143;-68
2023/11/22 08:07:55;;;;;;;;;;;;;;;-1.90;91.16;100651.17;1736024;81;20161;-78
2023/11/22 08:10:22;;;;;;;;;;;;;;;-1.94;91.43;100657.97;1734357;82;20535;-76
2023/11/22 08:12:49;;;;;;;;;;;;;;;-1.97;91.60;100652.84;1727904;82;20149;-86
2023/11/22 08:15:17;;;;;;;;;;;;;;;-2.02;92.00;100657.10;1728159;81;20420;-77
2023/11/22 08:27:43;;;;;;;;;;;;;;;-1.88;94.25;100662.25;1739570;80;20092;-72
2023/11/22 08:30:15;;;;;;;;;;;;;;;-1.86;94.29;100673.31;1736312;82;20103;-76
2023/11/22 08:32:52;;;;;;;;;;;;;;;-1.86;94.14;100673.31;1739010;82;20198;-80
2023/11/22 08:35:15;;;;;;;;;;;;;;;-1.89;94.33;100674.16;1726148;82;20116;-72
2023/11/22 08:37:41;;;;;;;;;;;;;;;-1.93;94.10;100663.92;1740860;82;20123;-75
2023/11/22 08:40:11;;;;;;;;;;;;;;;-1.92;94.52;100667.75;1729330;81;20217;-76
2023/11/22 08:42:38;;;;;;;;;;;;;;;-1.89;94.86;100667.77;1739790;82;20087;-76
2023/11/22 08:45:05;;;;;;;;;;;;;;;-1.88;94.25;100663.09;1732753;82;20157;-74
2023/11/22 08:47:33;;;;;;;;;;;;;;;-1.88;94.36;100660.97;1729889;82;20158;-72
2023/11/22 13:30:17;;;;;;;;;;;;;;;-2.91;92.67;100709.17;1833618;78;20142;-76
2023/11/22 13:32:44;;;;;;;;;;;;;;;-2.92;92.68;100711.29;1835770;77;20113;-74
2023/11/22 13:35:14;;;;;;;;;;;;;;;-2.92;92.60;100722.76;1842819;77;20135;-69
2023/11/22 13:37:44;;;;;;;;;;;;;;;-2.96;92.36;100718.47;1842862;77;20399;-75
2023/11/22 13:53:13;;;;;;;;;;;;;;;-3.15;92.41;100726.75;1778818;79;20098;-76
2023/11/22 13:55:41;;;;;;;;;;;;;;;-3.21;92.33;100731.81;1770563;80;20157;-71
2023/11/22 14:10:53;;;;;;;;;;;;;;;-3.26;94.08;100747.03;1838013;77;20423;-76
2023/11/22 14:13:22;;;;;;;;;;;;;;;-3.24;93.96;100743.23;1830770;77;20143;-71
2023/11/22 14:15:49;;;;;;;;;;;;;;;-3.24;93.69;100755.55;1827094;77;20092;-76
2023/11/22 14:18:17;;;;;;;;;;;;;;;-3.29;93.21;100761.00;1837250;77;20146;-71
2023/11/22 14:20:44;;;;;;;;;;;;;;;-3.38;92.96;100768.11;1850217;77;20432;-79
2023/11/22 14:23:10;;;;;;;;;;;;;;;-3.44;92.97;100772.27;1827447;77;20395;-73
2023/11/22 14:25:37;;;;;;;;;;;;;;;-3.54;92.93;100770.44;1820058;78;20182;-75
2023/11/22 14:28:04;;;;;;;;;;;;;;;-3.61;93.04;100775.05;1772641;79;20152;-80
2023/11/22 14:30:35;;;;;;;;;;;;;;;-3.66;93.36;100780.07;1785508;79;20414;-78
2023/11/22 14:35:39;;;;;;;;;;;;;;;-3.72;93.77;100778.30;1820638;78;20106;-75
2023/11/22 14:38:07;;;;;;;;;;;;;;;-3.74;93.94;100779.96;1827270;78;20092;-72
2023/11/22 14:40:37;;;;;;;;;;;;;;;-3.76;94.09;100779.50;1820710;78;20135;-78
2023/11/22 14:43:03;;;;;;;;;;;;;;;-3.80;94.37;100782.83;1827685;78;20087;-77
2023/11/22 14:53:25;;;;;;;;;;;;;;;-3.91;94.84;100792.85;1819663;78;20152;-75
